.
WxDataArchive / Data Records for 2009-03-28
2009-03-27 March 2009 2009-03-29

Data Records for Saturday, 28 March 2009

Time	Temp	Chill	HIndex	Humid	Dewpt	 Wind 	HiWind	WindDir	Rain 	Barom 
-----	----	-----	------	-----	-----	------	------	-------	-----	----- 
00:00	39.2	39.2	39.2	68	29.5	1	3	22	0.00	29.930 
00:05	39.1	39.1	39.1	68	29.4	1	4	338	0.00	29.926 
00:10	39.1	39.1	39.1	68	29.4	0	2	338	0.00	29.928 
00:15	38.9	38.9	38.9	68	29.3	1	4	0	0.00	29.927 
00:20	38.8	38.8	38.8	68	29.2	0	3	22	0.00	29.929 
00:25	38.8	38.8	38.8	68	29.2	1	5	0	0.00	29.925 
00:30	38.6	38.6	38.6	68	29.0	0	5	45	0.00	29.926 
00:35	38.6	38.6	38.6	68	29.0	1	4	0	0.00	29.926 
00:40	38.5	38.5	38.5	69	29.2	0	2	0	0.00	29.922 
00:45	38.3	38.3	38.3	69	29.0	0	1	0	0.00	29.927 
00:50	38.2	38.2	38.2	69	28.9	0	2	0	0.00	29.928 
00:55	38.0	38.0	38.0	69	28.7	0	1	0	0.00	29.924 
01:00	37.9	37.9	37.9	70	29.0	0	3	0	0.00	29.925 
01:05	37.8	37.8	37.8	70	28.9	0	2	0	0.00	29.919 
01:10	37.6	37.6	37.6	71	29.1	0	2	22	0.00	29.917 
01:15	37.6	37.6	37.6	71	29.1	0	3	338	0.00	29.918 
01:20	37.5	37.5	37.5	71	29.0	0	1	338	0.00	29.921 
01:25	37.3	37.3	37.3	71	28.8	0	1	338	0.00	29.921 
01:30	37.2	37.2	37.2	72	29.0	0	1	338	0.00	29.922 
01:35	37.0	37.0	37.0	72	28.8	0	0	---	0.00	29.925 
01:40	37.0	37.0	37.0	72	28.8	0	1	0	0.00	29.923 
01:45	36.9	36.9	36.9	72	28.7	0	0	---	0.00	29.920 
01:50	36.8	36.8	36.8	72	28.6	0	1	0	0.00	29.917 
01:55	36.6	36.6	36.6	73	28.8	0	1	0	0.00	29.916 
02:00	36.6	36.6	36.6	73	28.8	0	1	0	0.00	29.911 
02:05	36.6	36.6	36.6	73	28.8	0	2	0	0.00	29.913 
02:10	36.5	36.5	36.5	73	28.7	0	1	0	0.00	29.908 
02:15	36.5	36.5	36.5	73	28.7	0	1	0	0.00	29.908 
02:20	36.3	36.3	36.3	73	28.5	0	1	0	0.00	29.910 
02:25	36.2	36.2	36.2	73	28.4	0	1	0	0.00	29.903 
02:30	35.9	35.9	35.9	74	28.4	0	1	0	0.00	29.897 
02:35	35.8	35.8	35.8	74	28.3	0	1	0	0.00	29.892 
02:40	35.8	35.8	35.8	74	28.3	0	2	0	0.00	29.896 
02:45	35.6	35.6	35.6	74	28.1	0	2	0	0.00	29.888 
02:50	35.6	35.6	35.6	74	28.1	0	1	0	0.00	29.891 
02:55	35.5	35.5	35.5	74	28.0	0	2	0	0.00	29.900 
03:00	35.5	35.5	35.5	74	28.0	0	1	0	0.00	29.896 
03:05	35.3	35.3	35.3	74	27.9	0	1	0	0.00	29.892 
03:10	35.2	35.2	35.2	74	27.8	0	0	---	0.00	29.887 
03:15	35.0	35.0	35.0	74	27.6	0	1	0	0.00	29.887 
03:20	34.9	34.9	34.9	74	27.5	0	1	0	0.00	29.887 
03:25	34.9	34.9	34.9	75	27.8	0	0	---	0.00	29.888 
03:30	34.9	34.9	34.9	75	27.8	0	1	0	0.00	29.882 
03:35	34.7	34.7	34.7	74	27.3	0	1	0	0.00	29.882 
03:40	34.7	34.7	34.7	74	27.3	0	1	0	0.00	29.884 
03:45	34.7	34.7	34.7	74	27.3	0	1	0	0.00	29.884 
03:50	34.6	34.6	34.6	74	27.2	0	1	0	0.00	29.885 
03:55	34.6	34.6	34.6	74	27.2	0	2	0	0.00	29.889 
04:00	34.6	34.6	34.6	74	27.2	0	3	112	0.00	29.899 
04:05	34.7	34.7	34.7	73	26.9	0	1	112	0.00	29.903 
04:10	34.6	34.6	34.6	74	27.2	0	1	112	0.00	29.901 
04:15	34.4	34.4	34.4	74	27.0	0	1	112	0.00	29.890 
04:20	34.3	34.3	34.3	74	26.9	0	1	112	0.00	29.889 
04:25	34.3	34.3	34.3	74	26.9	0	3	68	0.00	29.897 
04:30	34.3	34.3	34.3	74	26.9	0	2	68	0.00	29.903 
04:35	34.1	34.1	34.1	74	26.7	0	1	68	0.00	29.904 
04:40	34.0	34.0	34.0	74	26.6	0	0	---	0.00	29.902 
04:45	33.8	33.8	33.8	75	26.7	0	0	---	0.00	29.904 
04:50	33.7	33.7	33.7	75	26.6	0	0	---	0.00	29.904 
04:55	33.5	33.5	33.5	76	26.8	0	1	68	0.00	29.904 
05:00	33.5	33.5	33.5	76	26.8	0	1	68	0.00	29.903 
05:05	33.4	33.4	33.4	77	27.0	0	2	68	0.00	29.899 
05:10	33.5	33.5	33.5	77	27.1	0	2	68	0.00	29.896 
05:15	33.5	33.5	33.5	77	27.1	0	2	68	0.00	29.888 
05:20	33.5	33.5	33.5	77	27.1	0	2	68	0.00	29.887 
05:25	33.4	33.4	33.4	77	27.0	0	1	68	0.00	29.890 
05:30	33.4	33.4	33.4	77	27.0	0	1	68	0.00	29.884 
05:35	33.4	33.4	33.4	78	27.3	0	1	68	0.00	29.882 
05:40	33.4	33.4	33.4	78	27.3	1	4	135	0.00	29.880 
05:45	33.5	33.5	33.5	78	27.4	0	2	90	0.00	29.880 
05:50	33.8	33.8	33.8	78	27.7	0	3	90	0.00	29.878 
05:55	34.0	34.0	34.0	78	27.9	1	5	112	0.00	29.874 
06:00	34.1	34.1	34.1	78	28.0	1	4	22	0.00	29.883 
06:05	34.3	34.3	34.3	78	28.2	1	3	45	0.00	29.889 
06:10	34.3	34.3	34.3	78	28.2	0	3	112	0.00	29.885 
06:15	34.4	34.4	34.4	79	28.6	1	5	112	0.00	29.891 
06:20	34.4	34.4	34.4	79	28.6	1	3	68	0.00	29.892 
06:25	34.4	34.4	34.4	80	28.9	1	2	68	0.00	29.894 
06:30	34.4	34.4	34.4	80	28.9	1	4	90	0.00	29.891 
06:35	34.4	34.4	34.4	80	28.9	0	2	68	0.00	29.892 
06:40	34.4	34.4	34.4	81	29.2	1	2	68	0.00	29.891 
06:45	34.4	34.4	34.4	81	29.2	0	2	68	0.00	29.892 
06:50	34.4	34.4	34.4	82	29.5	0	3	68	0.00	29.895 
06:55	34.6	34.6	34.6	82	29.7	0	2	135	0.00	29.896 
07:00	34.6	34.6	34.6	83	30.0	0	2	135	0.00	29.903 
07:05	34.7	34.7	34.7	83	30.1	0	2	135	0.00	29.908 
07:10	34.9	34.9	34.9	83	30.3	0	3	112	0.00	29.909 
07:15	35.0	35.0	35.0	83	30.4	0	3	112	0.00	29.914 
07:20	35.3	35.3	35.3	83	30.7	0	2	112	0.00	29.919 
07:25	35.5	35.5	35.5	83	30.9	0	2	68	0.00	29.922 
07:30	35.8	35.8	35.8	83	31.2	0	1	68	0.00	29.924 
07:35	35.9	35.9	35.9	83	31.2	1	4	68	0.00	29.924 
07:40	36.2	36.2	36.2	83	31.5	1	3	90	0.00	29.925 
07:45	36.5	36.5	36.5	82	31.5	1	6	90	0.00	29.919 
07:50	36.6	36.6	36.6	81	31.3	2	9	45	0.00	29.916 
07:55	36.8	36.8	36.8	81	31.5	2	5	22	0.00	29.914 
08:00	36.9	36.9	36.9	80	31.3	2	5	90	0.00	29.919 
08:05	37.0	37.0	37.0	79	31.1	2	5	112	0.00	29.923 
08:10	37.2	37.2	37.2	79	31.3	2	9	90	0.00	29.924 
08:15	37.3	37.3	37.3	79	31.4	2	7	90	0.00	29.912 
08:20	37.5	37.5	37.5	78	31.3	2	6	112	0.00	29.910 
08:25	37.6	37.6	37.6	78	31.4	2	7	90	0.00	29.909 
08:30	37.8	37.8	37.8	77	31.2	3	8	90	0.00	29.910 
08:35	37.9	37.9	37.9	76	31.0	2	6	90	0.00	29.913 
08:40	38.0	35.0	38.0	76	31.1	4	11	90	0.00	29.912 
08:45	38.2	38.2	38.2	76	31.3	2	6	68	0.00	29.910 
08:50	38.5	38.5	38.5	75	31.3	2	6	112	0.00	29.910 
08:55	38.6	38.6	38.6	74	31.0	2	5	22	0.00	29.913 
09:00	38.8	35.9	38.8	73	30.9	4	12	90	0.00	29.917 
09:05	38.9	35.2	38.9	73	31.0	5	9	112	0.00	29.922 
09:10	39.2	36.4	39.2	74	31.6	4	9	112	0.00	29.923 
09:15	39.3	39.3	39.3	73	31.4	3	9	90	0.00	29.917 
09:20	39.6	36.9	39.6	73	31.7	4	10	90	0.00	29.910 
09:25	39.6	36.9	39.6	73	31.7	4	11	112	0.00	29.908 
09:30	39.9	39.9	39.9	73	32.0	3	10	112	0.00	29.907 
09:35	39.9	35.6	39.9	72	31.6	6	13	112	0.00	29.905 
09:40	40.2	37.5	40.2	72	31.9	4	10	112	0.00	29.901 
09:45	40.6	38.0	40.6	71	31.9	4	11	112	0.00	29.899 
09:50	40.8	38.2	40.8	71	32.1	4	11	90	0.00	29.902 
09:55	41.1	38.6	41.1	70	32.1	4	10	112	0.00	29.902 
10:00	41.5	41.5	41.5	70	32.5	3	10	112	0.00	29.896 
10:05	41.9	39.5	41.9	69	32.5	4	11	112	0.00	29.897 
10:10	42.2	39.9	42.2	68	32.4	4	11	112	0.00	29.899 
10:15	42.5	38.7	42.5	67	32.3	6	11	112	0.00	29.901 
10:20	43.1	40.9	43.1	68	33.3	4	10	112	0.00	29.896 
10:25	43.8	41.7	43.8	65	32.8	4	11	112	0.00	29.894 
10:30	44.2	41.4	44.2	65	33.2	5	12	112	0.00	29.890 
10:35	45.1	45.1	45.1	66	34.4	3	9	112	0.00	29.884 
10:40	45.7	43.9	45.7	62	33.4	4	10	45	0.00	29.874 
10:45	46.0	46.0	46.0	62	33.7	3	8	22	0.00	29.871 
10:50	46.5	46.5	46.5	63	34.6	3	7	112	0.00	29.871 
10:55	47.1	47.1	47.1	61	34.4	3	10	112	0.00	29.866 
11:00	47.3	47.3	47.3	59	33.7	3	9	90	0.00	29.861 
11:05	47.4	47.4	47.4	62	35.0	3	11	68	0.00	29.858 
11:10	47.6	45.4	47.6	60	34.4	5	15	112	0.00	29.849 
11:15	47.9	45.8	47.9	61	35.1	5	13	112	0.00	29.846 
11:20	48.9	47.6	48.9	57	34.3	4	10	112	0.00	29.842 
11:25	49.4	47.0	49.4	57	34.8	6	11	112	0.00	29.839 
11:30	49.9	48.8	49.9	56	34.8	4	10	112	0.00	29.843 
11:35	49.9	48.8	49.9	56	34.8	4	14	112	0.00	29.839 
11:40	49.9	48.1	49.9	56	34.8	5	13	112	0.00	29.831 
11:45	49.8	48.0	49.8	56	34.7	5	12	112	0.00	29.829 
11:50	49.6	47.2	49.6	56	34.6	6	14	112	0.00	29.828 
11:55	49.5	46.6	49.5	55	34.0	7	14	112	0.00	29.821 
12:00	49.5	48.3	49.5	55	34.0	4	11	112	0.00	29.816 
12:05	49.9	48.8	49.9	57	35.3	4	11	112	0.00	29.814 
12:10	50.5	50.5	50.5	55	34.9	6	15	112	0.00	29.810 
12:15	51.0	51.0	51.0	54	34.9	5	14	112	0.00	29.806 
12:20	51.3	51.3	51.3	54	35.2	6	14	112	0.00	29.797 
12:25	51.4	51.4	51.4	52	34.4	6	18	112	0.00	29.793 
12:30	51.4	51.4	51.4	52	34.4	6	15	112	0.00	29.783 
12:35	51.6	51.6	51.6	54	35.5	8	17	90	0.00	29.779 
12:40	51.6	51.6	51.6	54	35.5	7	16	112	0.00	29.774 
12:45	51.9	51.9	51.9	53	35.3	7	15	112	0.00	29.774 
12:50	52.0	52.0	52.0	52	34.9	8	16	112	0.00	29.766 
12:55	52.5	52.5	52.5	51	34.9	8	17	112	0.00	29.764 
13:00	52.6	52.6	52.6	52	35.5	8	16	112	0.00	29.761 
13:05	52.5	52.5	52.5	51	34.9	10	23	112	0.00	29.757 
13:10	52.5	52.5	52.5	51	34.9	8	16	112	0.00	29.749 
13:15	52.5	52.5	52.5	51	34.9	10	18	112	0.00	29.745 
13:20	52.6	52.6	52.6	52	35.5	7	16	112	0.00	29.746 
13:25	52.9	52.9	52.9	52	35.8	6	19	90	0.00	29.743 
13:30	53.5	53.5	53.5	50	35.3	7	17	112	0.00	29.745 
13:35	54.1	54.1	54.1	48	34.8	8	16	90	0.00	29.747 
13:40	54.4	54.4	54.4	48	35.1	7	20	112	0.00	29.747 
13:45	54.7	54.7	54.7	49	35.9	6	13	90	0.00	29.745 
13:50	54.2	54.2	54.2	49	35.5	9	16	112	0.00	29.747 
13:55	53.9	53.9	53.9	48	34.7	11	19	112	0.00	29.738 
14:00	53.9	53.9	53.9	50	35.7	7	16	90	0.00	29.732 
14:05	54.1	54.1	54.1	49	35.4	6	13	112	0.00	29.728 
14:10	54.1	54.1	54.1	49	35.4	6	16	112	0.00	29.718 
14:15	53.9	53.9	53.9	49	35.2	8	15	112	0.00	29.714 
14:20	53.8	53.8	53.8	49	35.1	7	15	90	0.00	29.706 
14:25	53.5	53.5	53.5	48	34.3	9	20	112	0.00	29.700 
14:30	53.2	53.2	53.2	49	34.5	8	17	112	0.00	29.701 
14:35	52.9	52.9	52.9	50	34.8	9	15	90	0.00	29.697 
14:40	52.9	52.9	52.9	49	34.3	10	19	112	0.00	29.688 
14:45	52.8	52.8	52.8	50	34.7	7	14	90	0.00	29.688 
14:50	52.8	52.8	52.8	50	34.7	7	16	112	0.00	29.685 
14:55	52.8	52.8	52.8	51	35.2	8	18	112	0.00	29.678 
15:00	52.6	52.6	52.6	51	35.0	5	12	112	0.00	29.672 
15:05	52.6	52.6	52.6	50	34.5	8	21	112	0.00	29.670 
15:10	52.6	52.6	52.6	50	34.5	7	15	112	0.00	29.656 
15:15	52.8	52.8	52.8	50	34.7	8	15	112	0.00	29.642 
15:20	53.1	53.1	53.1	48	33.9	10	21	90	0.00	29.641 
15:25	53.2	53.2	53.2	46	33.0	8	14	90	0.00	29.644 
15:30	52.9	52.9	52.9	49	34.3	8	17	112	0.00	29.654 
15:35	52.5	52.5	52.5	49	33.9	9	16	90	0.00	29.655 
15:40	52.2	52.2	52.2	49	33.6	8	18	112	0.00	29.662 
15:45	51.9	51.9	51.9	50	33.9	7	15	90	0.00	29.659 
15:50	51.9	51.9	51.9	50	33.9	5	14	112	0.00	29.661 
15:55	51.7	51.7	51.7	50	33.7	8	17	112	0.00	29.657 
16:00	51.6	51.6	51.6	51	34.1	7	12	112	0.00	29.653 
16:05	51.6	51.6	51.6	51	34.1	7	17	90	0.00	29.645 
16:10	51.4	51.4	51.4	51	33.9	5	13	90	0.00	29.648 
16:15	51.3	51.3	51.3	51	33.8	7	13	90	0.00	29.637 
16:20	51.1	51.1	51.1	52	34.1	6	15	90	0.00	29.630 
16:25	51.0	51.0	51.0	51	33.5	7	16	112	0.00	29.620 
16:30	50.8	50.8	50.8	51	33.3	10	19	112	0.00	29.617 
16:35	50.7	50.7	50.7	51	33.2	9	16	112	0.00	29.616 
16:40	50.5	50.5	50.5	52	33.5	9	19	112	0.00	29.618 
16:45	50.5	50.5	50.5	52	33.5	8	15	112	0.00	29.620 
16:50	50.4	50.4	50.4	53	33.9	8	19	112	0.00	29.612 
16:55	50.4	50.4	50.4	53	33.9	8	16	90	0.00	29.612 
17:00	50.2	50.2	50.2	53	33.7	8	16	90	0.00	29.612 
17:05	50.1	50.1	50.1	54	34.1	5	14	112	0.00	29.608 
17:10	49.9	46.6	49.9	54	33.9	8	18	112	0.00	29.598 
17:15	49.8	46.5	49.8	53	33.4	8	18	112	0.00	29.590 
17:20	49.8	45.8	49.8	52	32.9	10	20	112	0.00	29.584 
17:25	49.6	45.9	49.6	53	33.2	9	22	112	0.00	29.582 
17:30	49.6	46.3	49.6	53	33.2	8	18	112	0.00	29.582 
17:35	49.5	45.8	49.5	53	33.1	9	17	112	0.00	29.581 
17:40	49.5	47.1	49.5	54	33.6	6	13	112	0.00	29.579 
17:45	49.5	47.1	49.5	54	33.6	6	16	90	0.00	29.575 
17:50	49.5	46.6	49.5	53	33.1	7	14	90	0.00	29.568 
17:55	49.5	45.8	49.5	51	32.1	9	19	112	0.00	29.564 
18:00	49.5	46.6	49.5	52	32.6	7	17	90	0.00	29.560 
18:05	49.5	46.2	49.5	52	32.6	8	18	112	0.00	29.559 
18:10	49.4	46.5	49.4	52	32.5	7	19	112	0.00	29.557 
18:15	49.4	47.0	49.4	53	33.0	6	15	90	0.00	29.556 
18:20	49.4	46.5	49.4	52	32.5	7	18	112	0.00	29.552 
18:25	49.4	46.5	49.4	53	33.0	7	17	112	0.00	29.548 
18:30	49.4	46.5	49.4	53	33.0	7	16	112	0.00	29.534 
18:35	49.2	46.2	49.2	54	33.3	7	15	112	0.00	29.532 
18:40	49.2	45.8	49.2	54	33.3	8	19	112	0.00	29.529 
18:45	49.1	45.7	49.1	54	33.2	8	17	112	0.00	29.518 
18:50	48.9	46.4	48.9	54	33.0	6	15	90	0.00	29.521 
18:55	48.9	45.4	48.9	55	33.5	8	17	112	0.00	29.514 
19:00	48.8	45.7	48.8	56	33.8	7	18	112	0.00	29.500 
19:05	48.5	45.4	48.5	56	33.5	7	17	112	0.00	29.493 
19:10	48.3	44.7	48.3	57	33.8	8	16	90	0.00	29.494 
19:15	48.2	43.8	48.2	58	34.1	10	18	112	0.00	29.487 
19:20	48.0	45.3	48.0	58	33.9	6	17	90	0.00	29.488 
19:25	47.9	45.2	47.9	58	33.8	6	14	90	0.00	29.486 
19:30	47.9	43.8	47.9	58	33.8	9	24	112	0.00	29.485 
19:35	47.9	44.2	47.9	58	33.8	8	17	112	0.00	29.484 
19:40	47.9	44.2	47.9	58	33.8	8	15	112	0.00	29.481 
19:45	47.7	44.4	47.7	58	33.7	7	17	90	0.00	29.483 
19:50	47.7	45.5	47.7	59	34.1	5	15	112	0.00	29.483 
19:55	47.7	45.5	47.7	58	33.7	5	13	112	0.00	29.480 
20:00	47.7	46.2	47.7	59	34.1	4	11	90	0.00	29.473 
20:05	47.7	46.2	47.7	59	34.1	4	12	112	0.00	29.466 
20:10	47.6	46.1	47.6	59	34.0	4	13	90	0.00	29.461 
20:15	47.6	46.1	47.6	59	34.0	4	12	112	0.00	29.462 
20:20	47.6	47.6	47.6	60	34.4	3	7	112	0.00	29.461 
20:25	47.6	47.6	47.6	61	34.8	3	9	90	0.00	29.463 
20:30	47.4	45.9	47.4	64	35.8	4	11	22	0.00	29.451 
20:35	47.1	47.1	47.1	66	36.3	3	9	22	0.00	29.451 
20:40	47.0	45.4	47.0	67	36.6	4	11	90	0.00	29.457 
20:45	47.0	47.0	47.0	68	37.0	3	8	112	0.00	29.481 
20:50	47.0	47.0	47.0	70	37.7	2	5	90	0.03	29.483 
20:55	46.2	46.2	46.2	76	39.1	3	7	45	0.07	29.456 
21:00	45.4	45.4	45.4	80	39.6	3	10	112	0.01	29.458 
21:05	44.9	44.9	44.9	82	39.7	2	5	90	0.01	29.461 
21:10	44.6	44.6	44.6	84	40.1	2	5	90	0.00	29.457 
21:15	44.5	44.5	44.5	85	40.3	2	7	112	0.02	29.451 
21:20	44.3	44.3	44.3	86	40.4	2	7	90	0.03	29.449 
21:25	44.2	44.2	44.2	87	40.6	2	4	90	0.02	29.445 
21:30	44.1	44.1	44.1	87	40.5	2	8	90	0.02	29.442 
21:35	44.1	44.1	44.1	88	40.8	2	4	90	0.02	29.440 
21:40	44.1	44.1	44.1	88	40.8	2	6	68	0.02	29.430 
21:45	43.9	43.9	43.9	89	40.9	2	5	45	0.01	29.421 
21:50	43.9	43.9	43.9	89	40.9	2	6	68	0.01	29.418 
21:55	43.8	43.8	43.8	90	41.1	3	8	90	0.02	29.416 
22:00	43.8	43.8	43.8	90	41.1	2	9	68	0.02	29.417 
22:05	43.6	43.6	43.6	90	40.9	1	5	22	0.02	29.412 
22:10	43.6	43.6	43.6	91	41.1	1	4	90	0.02	29.405 
22:15	43.6	43.6	43.6	91	41.1	1	6	90	0.02	29.397 
22:20	43.6	43.6	43.6	92	41.4	3	6	112	0.02	29.400 
22:25	43.8	43.8	43.8	94	42.2	3	7	112	0.03	29.416 
22:30	43.6	43.6	43.6	92	41.4	3	5	45	0.07	29.398 
22:35	43.6	43.6	43.6	92	41.4	2	4	90	0.04	29.394 
22:40	43.6	43.6	43.6	92	41.4	1	3	68	0.02	29.396 
22:45	43.5	43.5	43.5	93	41.6	1	3	112	0.04	29.399 
22:50	43.5	43.5	43.5	93	41.6	2	6	112	0.03	29.399 
22:55	43.3	43.3	43.3	93	41.4	2	5	45	0.02	29.401 
23:00	43.3	43.3	43.3	93	41.4	1	5	90	0.02	29.403 
23:05	43.3	43.3	43.3	93	41.4	0	3	112	0.03	29.404 
23:10	43.3	43.3	43.3	94	41.7	1	5	112	0.03	29.400 
23:15	43.2	43.2	43.2	94	41.6	2	4	90	0.03	29.400 
23:20	43.2	43.2	43.2	94	41.6	1	5	22	0.04	29.397 
23:25	43.1	43.1	43.1	94	41.5	1	5	112	0.03	29.393 
23:30	42.9	42.9	42.9	94	41.3	1	3	68	0.01	29.387 
23:35	42.9	42.9	42.9	94	41.3	0	2	68	0.01	29.386 
23:40	42.9	42.9	42.9	94	41.3	0	1	45	0.00	29.381 
23:45	42.9	42.9	42.9	94	41.3	1	4	45	0.01	29.363 
23:50	42.9	42.9	42.9	94	41.3	2	5	112	0.01	29.374 
23:55	42.9	42.9	42.9	95	41.6	3	11	90	0.00	29.359 

CoCoRaHS
IN-AL-39
A2 Web Hosting
Creative Commons License
GoDaddy
search engine by freefind advanced

loaded 2018-11-20 14:41:13 • last modified 2010-11-18 10:43:29
Privacy PolicyDisclaimer
• wx.awcolley.com is powered by PmWiki v.2002016 •
• all content (unless otherwise noted) © 2018 A W Colley